createdAt,value
2018-07-23T00:00:39.971Z,76.46
2018-07-23T00:01:39.840Z,75.79
2018-07-23T00:02:39.721Z,78.28
2018-07-23T00:03:39.598Z,80.66
2018-07-23T00:04:39.473Z,77.70
2018-07-23T00:05:39.349Z,75.13
2018-07-23T00:06:39.226Z,76.18
2018-07-23T00:07:39.105Z,77.32
2018-07-23T00:08:38.982Z,77.61
2018-07-23T00:09:38.859Z,78.94
2018-07-23T00:10:40.325Z,77.13
2018-07-23T00:11:38.613Z,72.17
2018-07-23T00:12:38.496Z,72.36
2018-07-23T00:13:38.373Z,70.54
2018-07-23T00:14:38.244Z,69.40
2018-07-23T00:15:38.120Z,69.02
2018-07-23T00:16:38.002Z,70.45
2018-07-23T00:17:37.877Z,73.03
2018-07-23T00:18:37.755Z,76.56
2018-07-23T00:19:37.632Z,75.70
2018-07-23T00:20:37.508Z,70.36
2018-07-23T00:21:37.385Z,69.40
2018-07-23T00:22:37.264Z,69.40
2018-07-23T00:23:37.141Z,69.68
2018-07-23T00:24:37.018Z,70.26
2018-07-23T00:25:36.897Z,71.41
2018-07-23T00:26:36.774Z,71.50
2018-07-23T00:27:36.649Z,69.59
2018-07-23T00:28:36.532Z,68.63
2018-07-23T00:29:36.404Z,69.21
2018-07-23T00:30:36.279Z,70.22
2018-07-23T00:31:36.157Z,73.03
2018-07-23T00:32:36.039Z,68.54
2018-07-23T00:33:35.914Z,69.40
2018-07-23T00:34:35.791Z,67.36
2018-07-23T00:35:35.665Z,65.36
2018-07-23T00:36:35.542Z,65.10
2018-07-23T00:37:35.420Z,66.53
2018-07-23T00:38:35.297Z,68.03
2018-07-23T00:39:35.173Z,69.59
2018-07-23T00:40:35.053Z,70.13
2018-07-23T00:41:34.925Z,70.36
2018-07-23T00:42:34.806Z,75.18
2018-07-23T00:43:34.681Z,73.41
2018-07-23T00:44:34.558Z,71.84
2018-07-23T00:45:34.436Z,72.74
2018-07-23T00:46:34.309Z,76.94
2018-07-23T00:47:34.187Z,79.33
2018-07-23T00:48:34.068Z,77.51
2018-07-23T00:49:33.940Z,81.43
2018-07-23T00:50:33.820Z,78.18
2018-07-23T00:51:33.702Z,76.84
2018-07-23T00:52:33.577Z,74.84
2018-07-23T00:53:33.452Z,72.74
2018-07-23T00:54:33.329Z,69.59
2018-07-23T00:55:33.209Z,67.40
2018-07-23T00:56:33.081Z,67.30
2018-07-23T00:57:32.960Z,68.06
2018-07-23T00:58:32.836Z,68.54
2018-07-23T00:59:32.715Z,71.88
2018-07-23T01:00:32.594Z,72.36
2018-07-23T01:01:32.469Z,74.65
2018-07-23T01:02:32.345Z,75.89
2018-07-23T01:03:32.221Z,76.46
2018-07-23T01:04:32.099Z,78.81
2018-07-23T01:05:31.976Z,73.12
2018-07-23T01:06:31.860Z,69.65
2018-07-23T01:07:31.732Z,70.13
2018-07-23T01:08:31.605Z,71.31
2018-07-23T01:09:31.483Z,73.88
2018-07-23T01:10:31.365Z,74.37
2018-07-23T01:11:31.273Z,75.03
2018-07-23T01:12:31.116Z,78.37
2018-07-23T01:13:30.991Z,78.09
2018-07-23T01:14:30.871Z,79.52
2018-07-23T01:15:30.752Z,79.33
2018-07-23T01:16:30.627Z,79.71
2018-07-23T01:17:30.506Z,80.47
2018-07-23T01:18:30.386Z,79.99
2018-07-23T01:19:30.258Z,80.47
2018-07-23T01:20:30.133Z,80.76
2018-07-23T01:21:30.009Z,82.38
2018-07-23T01:22:29.885Z,82.38
2018-07-23T01:23:29.762Z,82.09
2018-07-23T01:24:29.643Z,82.09
2018-07-23T01:25:29.520Z,80.66
2018-07-23T01:26:29.395Z,78.94
2018-07-23T01:27:29.276Z,72.55
2018-07-23T01:28:29.150Z,73.22
2018-07-23T01:29:29.027Z,70.92
2018-07-23T01:30:28.905Z,69.78
2018-07-23T01:31:28.787Z,72.03
2018-07-23T01:32:28.660Z,73.56
2018-07-23T01:33:28.536Z,73.66
2018-07-23T01:34:30.343Z,72.89
2018-07-23T01:35:28.292Z,70.03
2018-07-23T01:36:28.169Z,67.36
2018-07-23T01:37:28.045Z,66.98
2018-07-23T01:38:27.923Z,69.17
2018-07-23T01:39:27.798Z,72.42
2018-07-23T01:40:27.678Z,72.71
2018-07-23T01:41:27.552Z,70.51
2018-07-23T01:42:27.434Z,70.51
2018-07-23T01:43:27.310Z,70.03
2018-07-23T01:44:28.849Z,70.42
2018-07-23T01:45:27.061Z,72.45
2018-07-23T01:46:26.943Z,71.75
2018-07-23T01:47:26.817Z,73.47
2018-07-23T01:48:26.697Z,74.80
2018-07-23T01:49:27.269Z,75.60
2018-07-23T01:50:26.449Z,75.51
2018-07-23T01:51:26.325Z,76.65
2018-07-23T01:52:26.203Z,77.61
2018-07-23T01:53:27.848Z,76.84
2018-07-23T01:54:25.956Z,76.08
2018-07-23T01:55:25.834Z,72.93
2018-07-23T01:56:25.711Z,73.50
2018-07-23T01:57:25.589Z,76.18
2018-07-23T01:58:25.465Z,75.03
2018-07-23T01:59:25.351Z,75.60
2018-07-23T02:00:25.259Z,74.52
2018-07-23T02:01:25.100Z,73.03
2018-07-23T02:02:24.977Z,71.75
2018-07-23T02:03:24.852Z,70.32
2018-07-23T02:04:24.730Z,69.37
2018-07-23T02:05:24.607Z,70.03
2018-07-23T02:06:24.486Z,70.79
2018-07-23T02:07:24.365Z,71.98
2018-07-23T02:08:24.239Z,74.13
2018-07-23T02:09:24.114Z,74.74
2018-07-23T02:10:23.995Z,72.45
2018-07-23T02:11:23.870Z,74.27
2018-07-23T02:12:23.747Z,71.75
2018-07-23T02:13:23.624Z,72.07
2018-07-23T02:15:23.376Z,72.55
2018-07-23T02:16:23.253Z,72.74
2018-07-23T02:17:23.133Z,73.22
2018-07-23T02:18:23.271Z,73.98
2018-07-23T02:19:22.885Z,75.70
2018-07-23T02:20:22.764Z,77.61
2018-07-23T02:21:24.355Z,79.04
2018-07-23T02:22:22.518Z,76.75
2018-07-23T02:23:22.394Z,76.18
2018-07-23T02:24:22.273Z,75.13
2018-07-23T02:25:22.150Z,74.93
2018-07-23T02:26:22.027Z,76.08
2018-07-23T02:27:21.905Z,76.46
2018-07-23T02:28:21.783Z,77.13
2018-07-23T02:29:21.660Z,76.46
2018-07-23T02:30:21.540Z,76.75
2018-07-23T02:31:21.415Z,78.28
2018-07-23T02:32:21.290Z,77.32
2018-07-23T02:33:21.168Z,80.19
2018-07-23T02:34:21.045Z,80.66
2018-07-23T02:35:20.925Z,79.52
2018-07-23T02:36:20.803Z,77.89
2018-07-23T02:37:20.677Z,77.51
2018-07-23T02:38:20.560Z,80.66
2018-07-23T02:39:20.432Z,76.46
2018-07-23T02:40:20.309Z,72.80
2018-07-23T02:41:20.194Z,72.64
2018-07-23T02:42:20.066Z,70.51
2018-07-23T02:43:19.948Z,76.42
2018-07-23T02:44:19.821Z,73.08
2018-07-23T02:45:21.370Z,70.22
2018-07-23T02:46:19.574Z,69.37
2018-07-23T02:47:19.454Z,66.98
2018-07-23T02:48:19.331Z,65.83
2018-07-23T02:49:19.205Z,69.74
2018-07-23T02:50:19.086Z,70.13
2018-07-23T02:51:18.961Z,68.60
2018-07-23T02:52:18.837Z,65.64
2018-07-23T02:53:18.713Z,66.22
2018-07-23T02:54:18.590Z,65.64
2018-07-23T02:55:18.521Z,66.50
2018-07-23T02:56:19.868Z,74.52
2018-07-23T02:57:18.222Z,81.67
2018-07-23T02:58:18.099Z,83.01
2018-07-23T02:59:17.978Z,77.76
2018-07-23T03:00:17.856Z,82.15
2018-07-23T03:01:17.730Z,82.06
2018-07-23T03:02:17.608Z,78.72
2018-07-23T03:03:17.487Z,83.20
2018-07-23T03:04:17.362Z,79.57
2018-07-23T03:05:17.237Z,79.96
2018-07-23T03:06:17.115Z,77.86
2018-07-23T03:07:16.994Z,77.86
2018-07-23T03:08:16.869Z,79.23
2018-07-23T03:09:16.745Z,78.94
2018-07-23T03:10:16.622Z,74.55
2018-07-23T03:11:16.500Z,72.80
2018-07-23T03:12:16.377Z,71.46
2018-07-23T03:13:16.253Z,69.93
2018-07-23T03:14:16.131Z,69.49
2018-07-23T03:15:16.011Z,69.59
2018-07-23T03:16:15.884Z,70.51
2018-07-23T03:17:15.761Z,71.12
2018-07-23T03:18:15.638Z,72.80
2018-07-23T03:19:15.515Z,73.22
2018-07-23T03:20:15.397Z,72.93
2018-07-23T03:21:15.269Z,73.60
2018-07-23T03:22:15.201Z,74.65
2018-07-23T03:23:15.026Z,73.12
2018-07-23T03:24:14.905Z,73.03
2018-07-23T03:25:14.783Z,73.03
2018-07-23T03:26:14.656Z,72.64
2018-07-23T03:27:14.530Z,75.13
2018-07-23T03:28:14.408Z,75.51
2018-07-23T03:29:14.286Z,74.55
2018-07-23T03:30:14.164Z,74.65
2018-07-23T03:31:14.040Z,75.22
2018-07-23T03:32:13.918Z,73.88
2018-07-23T03:33:13.795Z,74.08
2018-07-23T03:34:15.374Z,74.65
2018-07-23T03:35:13.550Z,74.84
2018-07-23T03:36:13.427Z,74.08
2018-07-23T03:37:13.302Z,74.27
2018-07-23T03:38:13.182Z,73.50
2018-07-23T03:39:13.055Z,73.41
2018-07-23T03:40:12.933Z,73.50
2018-07-23T03:41:12.809Z,72.36
2018-07-23T03:42:12.687Z,71.41
2018-07-23T03:43:12.566Z,71.98
2018-07-23T03:44:12.441Z,72.36
2018-07-23T03:45:13.875Z,73.03
2018-07-23T03:46:12.195Z,72.45
2018-07-23T03:47:13.877Z,73.12
2018-07-23T03:48:11.952Z,73.41
2018-07-23T03:49:11.828Z,73.41
2018-07-23T03:50:11.705Z,75.32
2018-07-23T03:51:11.584Z,75.79
2018-07-23T03:52:11.461Z,76.18
2018-07-23T03:53:11.334Z,75.13
2018-07-23T03:54:11.214Z,73.88
2018-07-23T03:55:11.092Z,71.78
2018-07-23T03:56:10.968Z,72.07
2018-07-23T03:57:10.844Z,70.16
2018-07-23T03:58:10.725Z,69.87
2018-07-23T03:59:10.602Z,67.87
2018-07-23T04:00:10.478Z,65.96
2018-07-23T04:01:10.355Z,61.07
2018-07-23T04:02:10.232Z,58.77
2018-07-23T04:03:10.112Z,60.87
2018-07-23T04:04:09.986Z,60.30
2018-07-23T04:05:09.865Z,58.58
2018-07-23T04:06:09.742Z,57.82
2018-07-23T04:07:09.616Z,54.57
2018-07-23T04:08:09.495Z,52.57
2018-07-23T04:09:09.370Z,51.04
2018-07-23T04:10:09.251Z,49.42
2018-07-23T04:11:09.129Z,48.94
2018-07-23T04:12:09.004Z,48.28
2018-07-23T04:13:08.884Z,48.28
2018-07-23T04:14:08.757Z,49.90
2018-07-23T04:15:09.383Z,52.67
2018-07-23T04:16:08.512Z,50.76
2018-07-23T04:17:08.391Z,49.23
2018-07-23T04:18:08.269Z,50.57
2018-07-23T04:19:08.145Z,53.53
2018-07-23T04:20:08.022Z,50.57
2018-07-23T04:21:07.898Z,49.04
2018-07-23T04:22:07.783Z,48.28
2018-07-23T04:23:07.651Z,47.89
2018-07-23T04:24:07.529Z,47.71
2018-07-23T04:25:07.407Z,48.18
2018-07-23T04:26:07.283Z,49.23
2018-07-23T04:27:07.161Z,50.57
2018-07-23T04:28:07.038Z,53.33
2018-07-23T04:29:06.913Z,55.82
2018-07-23T04:30:06.796Z,55.43
2018-07-23T04:31:06.667Z,55.55
2018-07-23T04:32:06.549Z,55.65
2018-07-23T04:33:08.388Z,54.70
2018-07-23T04:34:06.300Z,54.10
2018-07-23T04:35:06.177Z,52.98
2018-07-23T04:36:06.055Z,52.59
2018-07-23T04:37:05.931Z,52.59
2018-07-23T04:38:08.390Z,52.22
2018-07-23T04:39:05.688Z,54.89
2018-07-23T04:40:05.563Z,54.70
2018-07-23T04:41:05.592Z,55.65
2018-07-23T04:42:05.591Z,57.56
2018-07-23T04:43:05.195Z,58.90
2018-07-23T04:44:05.393Z,59.95
2018-07-23T04:45:04.951Z,59.85
2018-07-23T04:46:04.825Z,58.58
2018-07-23T04:47:04.704Z,56.77
2018-07-23T04:48:04.580Z,54.70
2018-07-23T04:49:04.458Z,52.28
2018-07-23T04:50:04.333Z,49.71
2018-07-23T04:51:04.212Z,46.75
2018-07-23T04:52:04.089Z,44.56
2018-07-23T04:53:03.965Z,43.70
2018-07-23T04:54:03.845Z,42.55
2018-07-23T04:55:03.723Z,41.88
2018-07-23T04:56:03.597Z,45.22
2018-07-23T04:57:03.546Z,49.42
2018-07-23T04:58:03.355Z,50.38
2018-07-23T04:59:03.230Z,51.52
2018-07-23T05:00:03.105Z,51.43
2018-07-23T05:01:02.982Z,51.71
2018-07-23T05:02:02.873Z,52.86
2018-07-23T05:03:02.738Z,52.57
2018-07-23T05:04:02.616Z,51.71
2018-07-23T05:05:02.491Z,50.67
2018-07-23T05:06:02.369Z,49.04
2018-07-23T05:07:02.283Z,49.52
2018-07-23T05:08:02.127Z,48.11
2018-07-23T05:09:02.002Z,44.87
2018-07-23T05:10:01.974Z,42.65
2018-07-23T05:11:01.754Z,41.43
2018-07-23T05:12:01.632Z,39.90
2018-07-23T05:13:01.506Z,39.50
2018-07-23T05:14:01.385Z,38.35
2018-07-23T05:15:01.262Z,37.40
2018-07-23T05:16:01.162Z,36.44
2018-07-23T05:17:01.017Z,35.68
2018-07-23T05:18:00.890Z,34.82
2018-07-23T05:19:00.770Z,34.63
2018-07-23T05:20:00.645Z,36.64
2018-07-23T05:21:00.522Z,36.44
2018-07-23T05:22:00.398Z,36.54
2018-07-23T05:23:00.276Z,36.73
2018-07-23T05:24:00.152Z,36.73
2018-07-23T05:25:00.030Z,37.21
2018-07-23T05:25:59.904Z,36.35
2018-07-23T05:26:59.782Z,35.68
2018-07-23T05:27:59.656Z,34.73
2018-07-23T05:28:59.534Z,34.63
2018-07-23T05:29:59.413Z,34.73
2018-07-23T05:30:59.290Z,33.20
2018-07-23T05:31:59.165Z,32.15
2018-07-23T05:32:59.041Z,30.72
2018-07-23T05:33:58.918Z,29.86
2018-07-23T05:34:58.797Z,29.29
2018-07-23T05:35:58.676Z,29.58
2018-07-23T05:36:58.551Z,29.48
2018-07-23T05:37:58.425Z,29.67
2018-07-23T05:38:58.310Z,30.43
2018-07-23T05:39:58.182Z,31.01
2018-07-23T05:40:58.056Z,30.82
2018-07-23T05:41:57.933Z,30.43
2018-07-23T05:42:57.809Z,30.24
2018-07-23T05:43:57.687Z,30.63
2018-07-23T05:44:57.565Z,30.43
2018-07-23T05:45:57.441Z,30.91
2018-07-23T05:46:57.316Z,31.01
2018-07-23T05:47:57.198Z,29.48
2018-07-23T05:48:57.071Z,29.77
2018-07-23T05:49:56.948Z,29.58
2018-07-23T05:50:56.824Z,29.86
2018-07-23T05:51:56.704Z,29.48
2018-07-23T05:52:56.580Z,29.86
2018-07-23T05:53:56.458Z,29.58
2018-07-23T05:54:56.333Z,29.10
2018-07-23T05:55:56.209Z,28.91
2018-07-23T05:56:56.085Z,29.00
2018-07-23T05:57:57.908Z,29.48
2018-07-23T05:58:55.880Z,29.77
2018-07-23T05:59:55.717Z,30.15
2018-07-23T06:00:55.596Z,29.10
2018-07-23T06:01:55.467Z,28.33
2018-07-23T06:02:55.346Z,27.57
2018-07-23T06:03:55.222Z,26.72
2018-07-23T06:04:55.099Z,26.52
2018-07-23T06:05:54.976Z,26.04
2018-07-23T06:06:54.944Z,25.19
2018-07-23T06:07:54.732Z,24.99
2018-07-23T06:08:56.410Z,23.66
2018-07-23T06:09:56.411Z,23.66
2018-07-23T06:10:54.359Z,23.18
2018-07-23T06:11:54.237Z,22.52
2018-07-23T06:12:54.112Z,22.61
2018-07-23T06:13:53.990Z,22.42
2018-07-23T06:14:53.866Z,22.23
2018-07-23T06:15:53.741Z,21.18
2018-07-23T06:16:53.619Z,21.08
2018-07-23T06:17:53.497Z,21.28
2018-07-23T06:18:53.371Z,21.18
2018-07-23T06:19:53.248Z,20.61
2018-07-23T06:20:53.126Z,21.18
2018-07-23T06:21:53.001Z,21.18
2018-07-23T06:22:52.879Z,20.42
2018-07-23T06:23:52.758Z,20.61
2018-07-23T06:24:52.632Z,20.70
2018-07-23T06:25:52.509Z,21.18
2018-07-23T06:26:52.386Z,21.18
2018-07-23T06:27:52.261Z,20.99
2018-07-23T06:28:52.136Z,20.61
2018-07-23T06:29:52.015Z,21.08
2018-07-23T06:30:51.891Z,21.84
2018-07-23T06:31:51.769Z,22.42
2018-07-23T06:32:51.647Z,22.42
2018-07-23T06:33:51.561Z,22.42
2018-07-23T06:34:51.401Z,22.89
2018-07-23T06:35:51.276Z,22.61
2018-07-23T06:36:51.153Z,22.04
2018-07-23T06:37:51.030Z,22.33
2018-07-23T06:38:50.904Z,22.52
2018-07-23T06:39:50.784Z,25.67
2018-07-23T06:40:51.543Z,26.04
2018-07-23T06:41:50.535Z,27.67
2018-07-23T06:42:50.413Z,28.05
2018-07-23T06:43:50.291Z,27.95
2018-07-23T06:44:50.167Z,27.87
2018-07-23T06:45:50.042Z,29.86
2018-07-23T06:46:49.922Z,33.31
2018-07-23T06:47:49.800Z,33.70
2018-07-23T06:48:49.676Z,29.97
2018-07-23T06:49:49.553Z,27.59
2018-07-23T06:50:49.431Z,27.11
2018-07-23T06:51:49.309Z,27.49
2018-07-23T06:52:49.183Z,27.78
2018-07-23T06:53:49.063Z,27.11
2018-07-23T06:54:48.940Z,27.01
2018-07-23T06:55:48.816Z,27.01
2018-07-23T06:56:48.691Z,27.01
2018-07-23T06:57:50.422Z,26.90
2018-07-23T06:58:48.447Z,26.72
2018-07-23T06:59:48.323Z,28.05
2018-07-23T07:00:48.200Z,29.10
2018-07-23T07:01:48.079Z,28.35
2018-07-23T07:02:47.955Z,30.34
2018-07-23T07:03:47.832Z,31.96
2018-07-23T07:04:47.707Z,34.73
2018-07-23T07:05:47.583Z,34.25
2018-07-23T07:06:47.462Z,33.87
2018-07-23T07:07:47.338Z,33.49
2018-07-23T07:08:47.216Z,31.10
2018-07-23T07:09:47.531Z,28.91
2018-07-23T07:10:46.974Z,29.29
2018-07-23T07:11:46.851Z,28.83
2018-07-23T07:12:46.725Z,28.73
2018-07-23T07:13:46.612Z,28.25
2018-07-23T07:14:46.484Z,31.40
2018-07-23T07:15:46.361Z,35.41
2018-07-23T07:16:46.234Z,37.99
2018-07-23T07:17:46.113Z,41.91
2018-07-23T07:18:45.991Z,46.39
2018-07-23T07:19:45.892Z,49.64
2018-07-23T07:20:45.742Z,54.60
2018-07-23T07:21:45.619Z,60.42
2018-07-23T07:22:45.501Z,59.76
2018-07-23T07:23:45.377Z,57.18
2018-07-23T07:24:45.251Z,59.47
2018-07-23T07:25:45.159Z,57.37
2018-07-23T07:26:45.006Z,56.80
2018-07-23T07:27:44.882Z,55.65
2018-07-23T07:28:44.757Z,53.93
2018-07-23T07:29:44.636Z,48.39
2018-07-23T07:30:44.515Z,42.48
2018-07-23T07:31:44.390Z,37.80
2018-07-23T07:32:44.267Z,36.94
2018-07-23T07:33:44.143Z,35.41
2018-07-23T07:34:44.074Z,34.55
2018-07-23T07:35:43.903Z,33.70
2018-07-23T07:36:43.774Z,37.80
2018-07-23T07:37:43.651Z,37.23
2018-07-23T07:38:43.538Z,36.75
2018-07-23T07:39:43.406Z,36.66
2018-07-23T07:40:44.933Z,37.32
2018-07-23T07:41:43.159Z,39.23
2018-07-23T07:42:43.038Z,40.00
2018-07-23T07:43:42.915Z,42.48
2018-07-23T07:44:42.790Z,42.48
2018-07-23T07:45:42.669Z,41.43
2018-07-23T07:46:42.547Z,43.05
2018-07-23T07:47:42.422Z,43.53
2018-07-23T07:48:42.297Z,43.53
2018-07-23T07:49:42.862Z,43.33
2018-07-23T07:50:42.054Z,43.33
2018-07-23T07:51:41.930Z,43.24
2018-07-23T07:52:41.807Z,41.91
2018-07-23T07:53:41.685Z,37.80
2018-07-23T07:54:41.562Z,36.46
2018-07-23T07:55:41.451Z,35.99
2018-07-23T07:56:41.317Z,35.70
2018-07-23T07:57:42.936Z,34.94
2018-07-23T07:58:41.073Z,34.36
2018-07-23T07:59:40.954Z,32.36
2018-07-23T08:00:40.829Z,32.74
2018-07-23T08:01:40.703Z,34.17
2018-07-23T08:02:40.585Z,38.66
2018-07-23T08:03:40.458Z,40.00
2018-07-23T08:04:40.337Z,40.57
2018-07-23T08:05:40.211Z,43.15
2018-07-23T08:06:40.091Z,43.24
2018-07-23T08:07:39.971Z,36.66
2018-07-23T08:08:39.845Z,36.46
2018-07-23T08:09:39.722Z,34.36
2018-07-23T08:10:39.599Z,35.89
2018-07-23T08:11:39.478Z,35.70
2018-07-23T08:12:39.401Z,34.36
2018-07-23T08:13:39.232Z,33.22
2018-07-23T08:14:39.109Z,31.88
2018-07-23T08:15:38.987Z,30.64
2018-07-23T08:16:38.863Z,30.83
2018-07-23T08:17:38.765Z,31.69
2018-07-23T08:18:38.616Z,32.17
2018-07-23T08:19:38.500Z,34.65
2018-07-23T08:20:38.372Z,38.76
2018-07-23T08:21:38.251Z,41.81
2018-07-23T08:22:38.129Z,39.14
2018-07-23T08:23:38.001Z,39.81
2018-07-23T08:24:37.877Z,46.11
2018-07-23T08:25:37.758Z,44.38
2018-07-23T08:26:37.632Z,42.86
2018-07-23T08:27:37.511Z,46.39
2018-07-23T08:28:37.391Z,50.88
2018-07-23T08:29:37.264Z,47.16
2018-07-23T08:30:37.145Z,51.64
2018-07-23T08:31:37.035Z,50.49
2018-07-23T08:32:36.900Z,46.03
2018-07-23T08:33:36.776Z,45.27
2018-07-23T08:34:36.653Z,47.66
2018-07-23T08:35:36.534Z,45.17
2018-07-23T08:36:36.406Z,40.11
2018-07-23T08:37:36.287Z,39.54
2018-07-23T08:38:36.203Z,43.26
2018-07-23T08:39:36.051Z,41.85
2018-07-23T08:40:35.921Z,36.98
2018-07-23T08:41:35.802Z,35.93
2018-07-23T08:42:35.674Z,38.79
2018-07-23T08:43:35.551Z,50.55
2018-07-23T08:44:35.425Z,52.94
2018-07-23T08:45:35.305Z,51.12
2018-07-23T08:46:36.328Z,55.61
2018-07-23T08:47:35.058Z,55.40
2018-07-23T08:48:34.988Z,47.78
2018-07-23T08:49:34.819Z,43.09
2018-07-23T08:50:34.692Z,43.26
2018-07-23T08:51:34.572Z,41.83
2018-07-23T08:52:34.448Z,39.83
2018-07-23T08:53:34.325Z,38.03
2018-07-23T08:54:34.203Z,39.56
2018-07-23T08:55:34.081Z,43.00
2018-07-23T08:56:33.958Z,43.57
2018-07-23T08:57:33.836Z,45.67
2018-07-23T08:58:33.717Z,45.67
2018-07-23T08:59:33.591Z,44.81
2018-07-23T09:00:33.470Z,45.58
2018-07-23T09:01:33.346Z,42.81
2018-07-23T09:02:33.224Z,43.95
2018-07-23T09:03:33.102Z,47.20
2018-07-23T09:04:32.980Z,46.25
2018-07-23T09:05:32.857Z,45.48
2018-07-23T09:06:33.572Z,50.55
2018-07-23T09:07:32.611Z,46.63
2018-07-23T09:08:32.547Z,49.30
2018-07-23T09:09:32.366Z,51.12
2018-07-23T09:10:32.245Z,50.55
2018-07-23T09:11:32.123Z,48.07
2018-07-23T09:12:31.999Z,39.18
2018-07-23T09:13:31.882Z,44.34
2018-07-23T09:14:31.756Z,49.59
2018-07-23T09:15:31.692Z,50.84
2018-07-23T09:16:31.517Z,49.98
2018-07-23T09:17:31.392Z,50.74
2018-07-23T09:18:31.270Z,49.30
2018-07-23T09:19:31.145Z,46.25
2018-07-23T09:20:31.406Z,47.61
2018-07-23T09:21:30.903Z,52.96
2018-07-23T09:22:30.777Z,54.78
2018-07-23T09:23:30.656Z,56.60
2018-07-23T09:24:30.532Z,56.79
2018-07-23T09:25:30.512Z,56.98
2018-07-23T09:26:30.289Z,52.58
2018-07-23T09:27:30.168Z,52.67
2018-07-23T09:28:30.045Z,61.66
2018-07-23T09:29:29.923Z,60.13
2018-07-23T09:30:29.802Z,55.35
2018-07-23T09:31:29.683Z,57.46
2018-07-23T09:32:29.559Z,57.26
2018-07-23T09:33:29.439Z,60.23
2018-07-23T09:34:29.313Z,63.76
2018-07-23T09:35:29.600Z,62.71
2018-07-23T09:36:29.072Z,64.82
2018-07-23T09:37:28.947Z,63.67
2018-07-23T09:38:28.828Z,56.69
2018-07-23T09:39:30.462Z,60.99
2018-07-23T09:40:28.584Z,60.23
2018-07-23T09:41:29.963Z,54.88
2018-07-23T09:42:28.342Z,56.79
2018-07-23T09:43:28.219Z,58.70
2018-07-23T09:44:28.093Z,55.64
2018-07-23T09:45:28.010Z,58.70
2018-07-23T09:46:27.852Z,58.80
2018-07-23T09:47:27.729Z,55.74
2018-07-23T09:48:27.607Z,49.62
2018-07-23T09:49:27.485Z,46.66
2018-07-23T09:50:27.363Z,44.55
2018-07-23T09:51:27.261Z,51.15
2018-07-23T09:52:27.124Z,53.37
2018-07-23T09:53:27.001Z,58.63
2018-07-23T09:54:26.877Z,60.35
2018-07-23T09:55:26.760Z,58.92
2018-07-23T09:56:26.634Z,63.42
2018-07-23T09:57:26.513Z,57.77
2018-07-23T09:58:27.967Z,70.91
2018-07-23T09:59:26.272Z,68.90
2018-07-23T10:00:26.147Z,67.66
2018-07-23T10:01:26.027Z,69.38
2018-07-23T10:02:25.905Z,82.78
2018-07-23T10:03:25.876Z,83.69
2018-07-23T10:04:25.666Z,78.05
2018-07-23T10:05:25.539Z,80.54
2018-07-23T10:06:25.420Z,81.02
2018-07-23T10:07:25.297Z,73.46
2018-07-23T10:08:25.176Z,76.57
2018-07-23T10:09:25.058Z,75.43
2018-07-23T10:10:24.932Z,74.09
2018-07-23T10:11:24.810Z,70.27
2018-07-23T10:12:24.690Z,68.45
2018-07-23T10:13:24.565Z,65.48
2018-07-23T10:14:24.447Z,69.15
2018-07-23T10:15:24.324Z,76.81
2018-07-23T10:16:24.204Z,70.59
2018-07-23T10:17:24.079Z,66.28
2018-07-23T10:18:23.960Z,65.52
2018-07-23T10:19:23.835Z,64.37
2018-07-23T10:20:23.716Z,62.65
2018-07-23T10:21:23.595Z,62.84
2018-07-23T10:22:23.475Z,57.10
2018-07-23T10:23:23.350Z,64.09
2018-07-23T10:24:23.229Z,73.08
2018-07-23T10:25:23.105Z,67.14
2018-07-23T10:26:22.985Z,63.32
2018-07-23T10:27:22.863Z,69.19
2018-07-23T10:28:22.742Z,86.85
2018-07-23T10:29:22.624Z,84.27
2018-07-23T10:30:22.502Z,77.00
2018-07-23T10:31:22.377Z,75.27
2018-07-23T10:32:22.253Z,81.97
2018-07-23T10:33:22.136Z,67.43
2018-07-23T10:34:22.013Z,66.86
2018-07-23T10:35:21.892Z,71.07
2018-07-23T10:36:21.768Z,76.90
2018-07-23T10:37:21.647Z,78.24
2018-07-23T10:38:21.526Z,75.22
2018-07-23T10:39:21.403Z,76.90
2018-07-23T10:40:21.282Z,68.10
2018-07-23T10:41:21.161Z,66.00
2018-07-23T10:42:21.038Z,72.98
2018-07-23T10:43:20.919Z,64.95
2018-07-23T10:44:20.796Z,63.23
2018-07-23T10:45:20.674Z,69.35
2018-07-23T10:46:20.553Z,68.96
2018-07-23T10:47:20.438Z,66.38
2018-07-23T10:48:20.313Z,67.53
2018-07-23T10:49:20.189Z,69.64
2018-07-23T10:50:20.068Z,69.82
2018-07-23T10:51:19.950Z,67.91
2018-07-23T10:52:19.865Z,74.32
2018-07-23T10:53:19.700Z,66.19
2018-07-23T10:54:19.584Z,63.51
2018-07-23T10:55:19.461Z,65.33
2018-07-23T10:56:19.336Z,69.73
2018-07-23T10:57:19.219Z,65.23
2018-07-23T10:58:19.098Z,65.33
2018-07-23T10:59:18.976Z,66.57
2018-07-23T11:00:18.849Z,65.01
2018-07-23T11:01:18.727Z,65.42
2018-07-23T11:02:18.607Z,60.55
2018-07-23T11:03:18.487Z,64.09
2018-07-23T11:04:18.391Z,67.63
2018-07-23T11:05:18.243Z,71.36
2018-07-23T11:06:18.119Z,67.34
2018-07-23T11:07:18.046Z,69.54
2018-07-23T11:08:17.878Z,73.79
2018-07-23T11:09:17.757Z,73.59
2018-07-23T11:10:17.632Z,78.28
2018-07-23T11:11:17.511Z,80.77
2018-07-23T11:12:17.387Z,80.48
2018-07-23T11:13:17.268Z,82.11
2018-07-23T11:14:17.147Z,84.31
2018-07-23T11:15:17.030Z,87.37
2018-07-23T11:16:16.903Z,89.19
2018-07-23T11:17:16.780Z,89.00
2018-07-23T11:18:16.660Z,91.20
2018-07-23T11:19:16.660Z,92.92
2018-07-23T11:20:16.417Z,85.69
2018-07-23T11:21:16.296Z,90.48
2018-07-23T11:22:16.182Z,93.98
2018-07-23T11:23:16.054Z,89.19
2018-07-23T11:24:15.932Z,89.58
2018-07-23T11:25:38.810Z,90.82
2018-07-23T11:26:15.691Z,84.98
2018-07-23T11:27:15.574Z,85.84
2018-07-23T11:28:15.446Z,83.68
2018-07-23T11:29:15.325Z,87.32
2018-07-23T11:30:15.204Z,86.55
2018-07-23T11:31:15.082Z,88.76
2018-07-23T11:32:15.613Z,89.19
2018-07-23T11:33:14.838Z,92.06
2018-07-23T11:34:14.716Z,85.65
2018-07-23T11:35:14.596Z,91.77
2018-07-23T11:36:14.476Z,90.67
2018-07-23T11:37:14.356Z,87.70
2018-07-23T11:38:14.235Z,95.17
2018-07-23T11:39:14.113Z,92.16
2018-07-23T11:40:13.988Z,93.64
2018-07-23T11:41:13.867Z,97.56
2018-07-23T11:42:13.749Z,93.49
2018-07-23T11:43:13.626Z,96.27
2018-07-23T11:44:13.506Z,99.99
2018-07-23T11:45:13.432Z,99.99
2018-07-23T11:46:24.418Z,99.99
2018-07-23T11:47:15.070Z,99.99
2018-07-23T11:48:13.022Z,99.99
2018-07-23T11:49:12.901Z,99.99
2018-07-23T11:50:12.780Z,99.99
2018-07-23T11:51:12.661Z,99.99
2018-07-23T11:52:14.354Z,99.99
2018-07-23T11:53:12.418Z,99.99
2018-07-23T11:54:12.297Z,99.99
2018-07-23T11:55:12.177Z,99.99
2018-07-23T11:56:12.058Z,99.99
2018-07-23T11:57:11.939Z,99.99
2018-07-23T11:58:11.817Z,99.99
2018-07-23T11:59:11.696Z,99.99
2018-07-23T12:00:11.577Z,99.99
2018-07-23T12:01:11.620Z,99.99
2018-07-23T12:02:11.346Z,99.99
2018-07-23T12:03:11.219Z,99.99
2018-07-23T12:04:11.119Z,99.99
2018-07-23T12:05:10.979Z,99.99
2018-07-23T12:06:10.863Z,99.99
2018-07-23T12:07:10.745Z,99.99
2018-07-23T12:08:10.621Z,99.99
2018-07-23T12:09:10.501Z,99.99
2018-07-23T12:10:10.384Z,99.99
2018-07-23T12:11:10.264Z,99.99
2018-07-23T12:12:10.145Z,99.99
2018-07-23T12:13:10.026Z,99.99
2018-07-23T12:14:09.907Z,99.99
2018-07-23T12:15:09.789Z,99.99
2018-07-23T12:16:09.669Z,99.99
2018-07-23T12:17:09.553Z,99.99
2018-07-23T12:18:09.435Z,99.99
2018-07-23T12:19:09.312Z,99.99
2018-07-23T12:20:09.193Z,99.99
2018-07-23T12:21:09.077Z,99.99
2018-07-23T12:22:08.959Z,99.99
2018-07-23T12:23:08.842Z,99.99
2018-07-23T12:24:08.719Z,99.99
2018-07-23T12:25:08.603Z,99.99
2018-07-23T12:26:08.578Z,99.99
2018-07-23T12:27:08.366Z,99.99
2018-07-23T12:28:08.249Z,99.99
2018-07-23T12:29:08.127Z,99.99
2018-07-23T12:30:08.009Z,99.99
2018-07-23T12:31:07.897Z,99.99
2018-07-23T12:32:07.775Z,99.99
2018-07-23T12:33:07.665Z,99.99
2018-07-23T12:34:07.540Z,99.99
2018-07-23T12:35:07.423Z,95.06
2018-07-23T12:36:07.308Z,93.57
2018-07-23T12:37:07.185Z,86.86
2018-07-23T12:38:07.073Z,86.57
2018-07-23T12:39:06.953Z,82.86
2018-07-23T12:40:06.901Z,94.82
2018-07-23T12:41:06.722Z,93.41
2018-07-23T12:42:06.603Z,85.15
2018-07-23T12:43:06.488Z,85.36
2018-07-23T12:44:06.371Z,86.72
2018-07-23T12:45:08.019Z,91.15
2018-07-23T12:46:06.143Z,81.67
2018-07-23T12:47:06.072Z,76.39
2018-07-23T12:48:05.908Z,72.79
2018-07-23T12:49:05.791Z,72.60
2018-07-23T12:50:05.677Z,73.33
2018-07-23T12:51:05.565Z,68.88
2018-07-23T12:52:05.447Z,77.83